createdAt,value
2019-02-28T00:00:56.197Z,5.84
2019-02-28T00:01:56.214Z,5.87
2019-02-28T00:02:56.159Z,5.90
2019-02-28T00:03:58.026Z,5.83
2019-02-28T00:04:56.135Z,5.90
2019-02-28T00:05:56.144Z,5.87
2019-02-28T00:06:56.114Z,5.97
2019-02-28T00:07:56.109Z,5.84
2019-02-28T00:08:56.099Z,5.89
2019-02-28T00:09:57.337Z,5.87
2019-02-28T00:10:56.121Z,5.86
2019-02-28T00:11:56.057Z,5.94
2019-02-28T00:12:56.046Z,5.94
2019-02-28T00:13:56.631Z,5.89
2019-02-28T00:14:58.624Z,5.97
2019-02-28T00:15:56.037Z,5.98
2019-02-28T00:16:56.004Z,5.98
2019-02-28T00:17:55.996Z,6.07
2019-02-28T00:18:55.983Z,6.20
2019-02-28T00:19:57.980Z,6.14
2019-02-28T00:20:55.964Z,6.17
2019-02-28T00:21:55.969Z,6.26
2019-02-28T00:22:55.978Z,6.26
2019-02-28T00:23:57.327Z,6.36
2019-02-28T00:24:55.918Z,6.38
2019-02-28T00:25:55.906Z,6.39
2019-02-28T00:26:55.957Z,6.42
2019-02-28T00:27:55.899Z,6.41
2019-02-28T00:28:57.067Z,6.41
2019-02-28T00:29:55.866Z,6.39
2019-02-28T00:30:55.850Z,6.44
2019-02-28T00:31:55.871Z,6.41
2019-02-28T00:32:56.338Z,6.31
2019-02-28T00:33:55.816Z,6.24
2019-02-28T00:34:55.815Z,6.24
2019-02-28T00:35:55.798Z,6.27
2019-02-28T00:36:55.823Z,6.27
2019-02-28T00:37:56.651Z,6.26
2019-02-28T00:38:55.789Z,6.24
2019-02-28T00:39:55.755Z,6.24
2019-02-28T00:40:55.748Z,6.31
2019-02-28T00:41:55.731Z,6.33
2019-02-28T00:42:55.750Z,6.30
2019-02-28T00:43:56.844Z,6.28
2019-02-28T00:44:55.722Z,6.28
2019-02-28T00:45:55.692Z,6.31
2019-02-28T00:46:55.679Z,6.31
2019-02-28T00:47:55.696Z,6.27
2019-02-28T00:48:55.671Z,6.31
2019-02-28T00:49:56.506Z,6.33
2019-02-28T00:50:58.558Z,6.35
2019-02-28T00:51:55.679Z,6.38
2019-02-28T00:52:55.648Z,6.26
2019-02-28T00:53:55.609Z,6.38
2019-02-28T00:54:55.598Z,6.36
2019-02-28T00:55:55.587Z,6.27
2019-02-28T00:56:55.590Z,6.39
2019-02-28T00:57:56.037Z,6.41
2019-02-28T00:58:55.547Z,6.42
2019-02-28T00:59:55.540Z,6.44
2019-02-28T01:00:55.531Z,6.42
2019-02-28T01:01:55.526Z,6.41
2019-02-28T01:02:55.519Z,6.36
2019-02-28T01:03:57.983Z,6.38
2019-02-28T01:04:55.485Z,6.31
2019-02-28T01:05:55.495Z,6.39
2019-02-28T01:06:55.463Z,6.36
2019-02-28T01:07:55.461Z,6.27
2019-02-28T01:08:56.117Z,6.30
2019-02-28T01:09:55.431Z,6.30
2019-02-28T01:10:55.447Z,6.26
2019-02-28T01:11:55.415Z,6.20
2019-02-28T01:12:55.403Z,6.24
2019-02-28T01:13:58.098Z,6.20
2019-02-28T01:14:56.374Z,6.11
2019-02-28T01:15:55.408Z,6.11
2019-02-28T01:16:55.355Z,6.07
2019-02-28T01:17:57.226Z,6.11
2019-02-28T01:18:56.343Z,6.16
2019-02-28T01:19:55.333Z,6.08
2019-02-28T01:20:55.340Z,6.05
2019-02-28T01:21:55.528Z,6.09
2019-02-28T01:22:58.556Z,6.02
2019-02-28T01:23:55.292Z,6.05
2019-02-28T01:24:55.279Z,6.04
2019-02-28T01:25:55.278Z,6.08
2019-02-28T01:26:55.255Z,6.04
2019-02-28T01:27:55.238Z,6.07
2019-02-28T01:28:55.229Z,5.99
2019-02-28T01:29:55.218Z,6.09
2019-02-28T01:30:55.231Z,6.09
2019-02-28T01:31:55.202Z,6.07
2019-02-28T01:32:55.187Z,6.05
2019-02-28T01:33:56.027Z,6.17
2019-02-28T01:34:55.165Z,6.12
2019-02-28T01:35:55.174Z,6.12
2019-02-28T01:36:55.139Z,6.19
2019-02-28T01:37:55.133Z,6.14
2019-02-28T01:38:57.827Z,6.08
2019-02-28T01:39:55.125Z,6.20
2019-02-28T01:40:55.144Z,6.07
2019-02-28T01:41:55.094Z,6.11
2019-02-28T01:42:55.169Z,6.12
2019-02-28T01:43:55.064Z,6.14
2019-02-28T01:44:55.054Z,6.11
2019-02-28T01:45:55.076Z,6.20
2019-02-28T01:46:55.031Z,6.07
2019-02-28T01:47:55.025Z,6.12
2019-02-28T01:48:55.205Z,6.19
2019-02-28T01:49:57.719Z,6.02
2019-02-28T01:50:54.988Z,6.02
2019-02-28T01:51:55.008Z,6.07
2019-02-28T01:52:54.969Z,6.07
2019-02-28T01:53:54.961Z,5.94
2019-02-28T01:54:54.959Z,5.94
2019-02-28T01:55:54.939Z,5.93
2019-02-28T01:56:54.941Z,5.86
2019-02-28T01:57:54.918Z,5.86
2019-02-28T01:58:54.902Z,5.83
2019-02-28T01:59:54.898Z,5.73
2019-02-28T02:00:57.337Z,5.69
2019-02-28T02:01:54.905Z,5.73
2019-02-28T02:02:54.859Z,5.68
2019-02-28T02:03:54.852Z,5.72
2019-02-28T02:04:54.844Z,5.64
2019-02-28T02:05:54.825Z,5.57
2019-02-28T02:06:59.635Z,5.53
2019-02-28T02:07:55.803Z,5.61
2019-02-28T02:08:54.791Z,5.62
2019-02-28T02:09:54.792Z,5.62
2019-02-28T02:10:56.014Z,5.64
2019-02-28T02:11:57.944Z,5.57
2019-02-28T02:12:54.777Z,5.64
2019-02-28T02:13:54.743Z,5.53
2019-02-28T02:14:54.729Z,5.59
2019-02-28T02:15:54.717Z,5.62
2019-02-28T02:16:54.734Z,5.65
2019-02-28T02:17:54.705Z,5.61
2019-02-28T02:18:54.758Z,5.68
2019-02-28T02:19:54.708Z,5.56
2019-02-28T02:20:57.410Z,5.66
2019-02-28T02:21:55.677Z,5.61
2019-02-28T02:22:54.664Z,5.56
2019-02-28T02:23:54.632Z,5.51
2019-02-28T02:24:54.623Z,5.51
2019-02-28T02:25:54.616Z,5.56
2019-02-28T02:26:54.596Z,5.68
2019-02-28T02:27:54.611Z,5.50
2019-02-28T02:28:54.584Z,5.39
2019-02-28T02:29:54.578Z,5.41
2019-02-28T02:30:54.553Z,5.41
2019-02-28T02:31:54.547Z,5.29
2019-02-28T02:32:54.562Z,5.30
2019-02-28T02:33:54.521Z,5.29
2019-02-28T02:34:54.510Z,5.29
2019-02-28T02:35:54.542Z,5.26
2019-02-28T02:36:54.630Z,5.25
2019-02-28T02:37:54.481Z,5.28
2019-02-28T02:38:54.493Z,5.28
2019-02-28T02:39:54.471Z,5.26
2019-02-28T02:40:59.045Z,5.28
2019-02-28T02:41:55.466Z,5.28
2019-02-28T02:42:54.429Z,5.25
2019-02-28T02:43:55.930Z,5.30
2019-02-28T02:44:54.431Z,5.23
2019-02-28T02:45:54.410Z,5.28
2019-02-28T02:46:56.014Z,5.11
2019-02-28T02:47:54.374Z,5.20
2019-02-28T02:48:54.399Z,5.17
2019-02-28T02:49:57.527Z,5.11
2019-02-28T02:50:54.343Z,5.12
2019-02-28T02:51:54.334Z,5.08
2019-02-28T02:52:54.319Z,5.10
2019-02-28T02:53:54.364Z,5.05
2019-02-28T02:54:54.319Z,5.07
2019-02-28T02:55:54.284Z,5.11
2019-02-28T02:56:54.273Z,5.11
2019-02-28T02:57:54.267Z,5.12
2019-02-28T02:58:54.270Z,5.11
2019-02-28T02:59:54.266Z,5.07
2019-02-28T03:00:54.238Z,5.10
2019-02-28T03:01:56.130Z,5.08
2019-02-28T03:02:54.217Z,5.11
2019-02-28T03:03:54.200Z,5.02
2019-02-28T03:04:58.185Z,5.00
2019-02-28T03:05:54.179Z,5.12
2019-02-28T03:06:54.175Z,5.17
2019-02-28T03:07:59.578Z,5.15
2019-02-28T03:08:55.149Z,5.20
2019-02-28T03:09:54.137Z,5.23
2019-02-28T03:10:54.144Z,5.20
2019-02-28T03:11:57.694Z,5.26
2019-02-28T03:12:54.106Z,5.26
2019-02-28T03:13:54.095Z,5.29
2019-02-28T03:14:54.082Z,5.41
2019-02-28T03:15:54.110Z,5.38
2019-02-28T03:16:54.067Z,5.47
2019-02-28T03:17:54.055Z,5.38
2019-02-28T03:18:58.008Z,5.44
2019-02-28T03:19:54.029Z,5.59
2019-02-28T03:20:54.051Z,5.47
2019-02-28T03:21:54.010Z,5.51
2019-02-28T03:22:53.994Z,5.62
2019-02-28T03:23:53.981Z,5.54
2019-02-28T03:24:53.980Z,5.59
2019-02-28T03:25:53.965Z,5.54
2019-02-28T03:26:53.981Z,5.59
2019-02-28T03:27:56.376Z,5.68
2019-02-28T03:28:53.934Z,5.68
2019-02-28T03:29:53.938Z,5.68
2019-02-28T03:30:53.909Z,5.71
2019-02-28T03:31:56.664Z,5.69
2019-02-28T03:32:54.889Z,5.79
2019-02-28T03:33:53.877Z,5.82
2019-02-28T03:34:58.090Z,5.87
2019-02-28T03:35:54.859Z,5.91
2019-02-28T03:36:57.138Z,5.87
2019-02-28T03:37:53.848Z,5.91
2019-02-28T03:38:53.820Z,5.86
2019-02-28T03:40:02.489Z,5.87
2019-02-28T03:40:54.800Z,5.90
2019-02-28T03:41:54.273Z,5.84
2019-02-28T03:42:53.795Z,5.86
2019-02-28T03:43:53.772Z,5.83
2019-02-28T03:44:56.957Z,5.83
2019-02-28T03:45:53.773Z,5.90
2019-02-28T03:46:53.750Z,5.83
2019-02-28T03:47:58.422Z,5.87
2019-02-28T03:48:54.713Z,5.87
2019-02-28T03:49:53.714Z,5.86
2019-02-28T03:50:55.288Z,5.93
2019-02-28T03:51:53.727Z,5.94
2019-02-28T03:52:53.704Z,5.97
2019-02-28T03:53:55.949Z,5.97
2019-02-28T03:54:53.645Z,5.98
2019-02-28T03:55:53.638Z,5.91
2019-02-28T03:56:53.646Z,5.87
2019-02-28T03:57:53.678Z,5.90
2019-02-28T03:58:53.602Z,5.84
2019-02-28T03:59:56.717Z,5.83
2019-02-28T04:00:53.604Z,5.75
2019-02-28T04:01:53.583Z,5.61
2019-02-28T04:02:58.772Z,5.71
2019-02-28T04:03:54.576Z,5.68
2019-02-28T04:04:53.547Z,5.62
2019-02-28T04:05:53.530Z,5.69
2019-02-28T04:06:53.518Z,5.66
2019-02-28T04:07:54.970Z,5.75
2019-02-28T04:08:53.520Z,5.62
2019-02-28T04:09:53.510Z,5.69
2019-02-28T04:10:54.723Z,5.71
2019-02-28T04:11:53.465Z,5.62
2019-02-28T04:12:53.456Z,5.75
2019-02-28T04:13:56.059Z,5.79
2019-02-28T04:14:53.448Z,5.87
2019-02-28T04:16:07.486Z,5.91
2019-02-28T04:16:54.598Z,5.86
2019-02-28T04:17:53.398Z,6.02
2019-02-28T04:18:53.423Z,5.97
2019-02-28T04:19:58.830Z,6.02
2019-02-28T04:20:54.370Z,5.97
2019-02-28T04:21:53.373Z,5.97
2019-02-28T04:22:58.762Z,5.93
2019-02-28T04:23:54.369Z,5.91
2019-02-28T04:24:53.323Z,5.90
2019-02-28T04:25:56.844Z,5.99
2019-02-28T04:26:53.305Z,5.98
2019-02-28T04:27:53.294Z,5.94
2019-02-28T04:28:54.668Z,6.01
2019-02-28T04:29:53.297Z,6.01
2019-02-28T04:30:53.271Z,5.99
2019-02-28T04:31:53.259Z,5.90
2019-02-28T04:32:53.249Z,5.98
2019-02-28T04:33:53.236Z,5.90
2019-02-28T04:34:53.234Z,5.89
2019-02-28T04:35:53.206Z,5.93
2019-02-28T04:36:53.198Z,5.90
2019-02-28T04:37:53.202Z,5.89
2019-02-28T04:38:53.183Z,5.84
2019-02-28T04:39:53.514Z,5.90
2019-02-28T04:40:53.155Z,5.91
2019-02-28T04:41:53.140Z,5.89
2019-02-28T04:42:53.135Z,5.94
2019-02-28T04:43:53.139Z,5.98
2019-02-28T04:44:53.119Z,5.97
2019-02-28T04:45:53.120Z,5.93
2019-02-28T04:46:53.089Z,6.07
2019-02-28T04:47:53.077Z,6.01
2019-02-28T04:48:53.080Z,6.07
2019-02-28T04:49:53.534Z,6.02
2019-02-28T04:50:53.067Z,6.08
2019-02-28T04:51:53.031Z,6.07
2019-02-28T04:52:53.019Z,6.19
2019-02-28T04:53:53.838Z,6.08
2019-02-28T04:54:52.999Z,6.01
2019-02-28T04:55:53.025Z,6.08
2019-02-28T04:56:52.983Z,6.08
2019-02-28T04:57:52.966Z,5.99
2019-02-28T04:58:52.968Z,5.97
2019-02-28T04:59:52.948Z,5.91
2019-02-28T05:00:52.941Z,5.94
2019-02-28T05:01:52.947Z,5.97
2019-02-28T05:02:54.869Z,5.83
2019-02-28T05:03:52.912Z,5.79
2019-02-28T05:04:52.892Z,5.71
2019-02-28T05:05:52.909Z,5.75
2019-02-28T05:06:55.248Z,5.73
2019-02-28T05:07:52.862Z,5.69
2019-02-28T05:08:52.846Z,5.57
2019-02-28T05:09:52.865Z,5.61
2019-02-28T05:10:55.636Z,5.65
2019-02-28T05:11:52.849Z,5.66
2019-02-28T05:12:52.804Z,5.59
2019-02-28T05:13:52.823Z,5.59
2019-02-28T05:14:55.260Z,5.59
2019-02-28T05:15:53.774Z,5.65
2019-02-28T05:16:52.784Z,5.62
2019-02-28T05:17:53.122Z,5.57
2019-02-28T05:18:52.736Z,5.66
2019-02-28T05:19:52.737Z,5.57
2019-02-28T05:20:52.750Z,5.62
2019-02-28T05:21:53.505Z,5.48
2019-02-28T05:22:52.692Z,5.51
2019-02-28T05:23:52.689Z,5.48
2019-02-28T05:24:52.670Z,5.54
2019-02-28T05:25:52.703Z,5.51
2019-02-28T05:26:52.648Z,5.48
2019-02-28T05:27:52.661Z,5.50
2019-02-28T05:28:52.630Z,5.48
2019-02-28T05:29:52.621Z,5.53
2019-02-28T05:30:53.675Z,5.50
2019-02-28T05:31:52.598Z,5.57
2019-02-28T05:32:52.624Z,5.54
2019-02-28T05:33:52.577Z,5.53
2019-02-28T05:34:52.568Z,5.50
2019-02-28T05:35:52.554Z,5.50
2019-02-28T05:36:52.545Z,5.54
2019-02-28T05:37:52.560Z,5.54
2019-02-28T05:38:53.561Z,5.50
2019-02-28T05:39:52.533Z,5.54
2019-02-28T05:40:52.497Z,5.47
2019-02-28T05:41:52.515Z,5.62
2019-02-28T05:42:54.619Z,5.59
2019-02-28T05:43:53.492Z,5.59
2019-02-28T05:44:52.455Z,5.53
2019-02-28T05:45:52.462Z,5.51
2019-02-28T05:46:52.450Z,5.53
2019-02-28T05:47:52.419Z,5.57
2019-02-28T05:48:52.426Z,5.64
2019-02-28T05:49:52.399Z,5.69
2019-02-28T05:50:53.360Z,5.72
2019-02-28T05:51:52.388Z,5.69
2019-02-28T05:52:52.379Z,5.71
2019-02-28T05:53:52.402Z,5.69
2019-02-28T05:54:52.356Z,5.75
2019-02-28T05:55:52.336Z,5.64
2019-02-28T05:56:52.329Z,5.76
2019-02-28T05:57:52.335Z,5.79
2019-02-28T05:58:53.214Z,5.73
2019-02-28T05:59:52.327Z,5.76
2019-02-28T06:00:52.299Z,5.76
2019-02-28T06:01:52.274Z,5.80
2019-02-28T06:02:54.473Z,5.82
2019-02-28T06:03:53.250Z,5.80
2019-02-28T06:04:52.271Z,5.82
2019-02-28T06:05:52.239Z,5.84
2019-02-28T06:06:54.698Z,5.84
2019-02-28T06:07:52.208Z,5.75
2019-02-28T06:08:52.224Z,5.79
2019-02-28T06:09:52.213Z,5.79
2019-02-28T06:10:52.176Z,5.83
2019-02-28T06:11:52.181Z,5.80
2019-02-28T06:12:52.163Z,5.82
2019-02-28T06:13:52.845Z,5.76
2019-02-28T06:14:52.161Z,5.80
2019-02-28T06:15:52.133Z,5.83
2019-02-28T06:16:52.121Z,5.80
2019-02-28T06:17:54.634Z,5.75
2019-02-28T06:18:52.091Z,5.76
2019-02-28T06:19:52.074Z,5.79
2019-02-28T06:20:52.268Z,5.75
2019-02-28T06:21:53.029Z,5.66
2019-02-28T06:22:52.050Z,5.79
2019-02-28T06:23:52.058Z,5.71
2019-02-28T06:24:52.022Z,5.68
2019-02-28T06:25:52.033Z,5.64
2019-02-28T06:26:52.007Z,5.72
2019-02-28T06:27:51.998Z,5.80
2019-02-28T06:28:51.977Z,5.75
2019-02-28T06:29:51.974Z,5.69
2019-02-28T06:30:52.001Z,5.72
2019-02-28T06:31:51.944Z,5.73
2019-02-28T06:32:51.940Z,5.76
2019-02-28T06:33:51.923Z,5.80
2019-02-28T06:34:51.923Z,5.76
2019-02-28T06:35:53.684Z,5.75
2019-02-28T06:36:52.315Z,5.80
2019-02-28T06:37:51.879Z,5.79
2019-02-28T06:38:54.561Z,5.79
2019-02-28T06:39:51.855Z,5.84
2019-02-28T06:40:51.847Z,5.83
2019-02-28T06:41:51.860Z,5.89
2019-02-28T06:42:51.826Z,5.90
2019-02-28T06:43:53.071Z,5.89
2019-02-28T06:44:51.816Z,5.90
2019-02-28T06:45:51.789Z,5.94
2019-02-28T06:46:51.839Z,5.98
2019-02-28T06:47:51.778Z,5.91
2019-02-28T06:48:51.756Z,5.99
2019-02-28T06:49:51.753Z,5.93
2019-02-28T06:50:51.751Z,5.91
2019-02-28T06:51:52.018Z,5.93
2019-02-28T06:52:51.736Z,6.02
2019-02-28T06:53:51.721Z,5.93
2019-02-28T06:54:51.693Z,6.08
2019-02-28T06:55:51.683Z,5.99
2019-02-28T06:56:54.087Z,6.04
2019-02-28T06:57:51.676Z,6.05
2019-02-28T06:58:51.657Z,6.08
2019-02-28T06:59:51.645Z,6.11
2019-02-28T07:00:51.628Z,6.20
2019-02-28T07:01:56.570Z,6.22
2019-02-28T07:02:52.660Z,6.24
2019-02-28T07:03:53.684Z,6.27
2019-02-28T07:04:51.592Z,6.41
2019-02-28T07:05:51.604Z,6.42
2019-02-28T07:06:51.568Z,6.35
2019-02-28T07:07:51.566Z,6.44
2019-02-28T07:08:51.569Z,6.45
2019-02-28T07:09:51.536Z,6.48
2019-02-28T07:10:51.555Z,6.54
2019-02-28T07:11:54.889Z,6.57
2019-02-28T07:12:51.504Z,6.70
2019-02-28T07:13:51.511Z,6.75
2019-02-28T07:14:51.479Z,6.81
2019-02-28T07:15:51.466Z,6.84
2019-02-28T07:16:51.460Z,6.85
2019-02-28T07:17:51.468Z,6.87
2019-02-28T07:18:53.822Z,6.89
2019-02-28T07:19:51.429Z,7.02
2019-02-28T07:20:51.436Z,7.06
2019-02-28T07:21:51.405Z,7.05
2019-02-28T07:22:54.154Z,7.06
2019-02-28T07:23:53.281Z,7.11
2019-02-28T07:24:51.387Z,7.18
2019-02-28T07:25:52.468Z,7.17
2019-02-28T07:26:52.260Z,7.25
2019-02-28T07:27:51.351Z,7.24
2019-02-28T07:28:51.323Z,7.23
2019-02-28T07:29:51.314Z,7.23
2019-02-28T07:30:51.336Z,7.35
2019-02-28T07:31:51.307Z,7.39
2019-02-28T07:32:51.279Z,7.40
2019-02-28T07:33:51.434Z,7.36
2019-02-28T07:34:51.711Z,7.45
2019-02-28T07:35:51.254Z,7.45
2019-02-28T07:36:51.254Z,7.48
2019-02-28T07:37:54.327Z,7.56
2019-02-28T07:38:51.225Z,7.57
2019-02-28T07:39:51.216Z,7.57
2019-02-28T07:40:51.213Z,7.56
2019-02-28T07:41:51.206Z,7.56
2019-02-28T07:42:51.179Z,7.75
2019-02-28T07:43:51.169Z,7.75
2019-02-28T07:44:53.658Z,7.75
2019-02-28T07:45:52.301Z,7.73
2019-02-28T07:46:51.168Z,7.75
2019-02-28T07:47:52.725Z,7.85
2019-02-28T07:48:51.117Z,7.88
2019-02-28T07:49:51.117Z,7.93
2019-02-28T07:50:51.085Z,7.98
2019-02-28T07:51:51.077Z,8.00
2019-02-28T07:52:53.122Z,8.08
2019-02-28T07:53:51.058Z,8.01
2019-02-28T07:54:51.837Z,8.05
2019-02-28T07:55:51.029Z,8.09
2019-02-28T07:56:51.024Z,8.09
2019-02-28T07:57:54.264Z,8.18
2019-02-28T07:58:51.995Z,8.13
2019-02-28T07:59:50.985Z,8.18
2019-02-28T08:00:52.680Z,8.16
2019-02-28T08:01:50.962Z,8.23
2019-02-28T08:02:51.032Z,8.30
2019-02-28T08:03:50.968Z,8.28
2019-02-28T08:04:54.374Z,8.38
2019-02-28T08:05:50.916Z,8.42
2019-02-28T08:06:50.918Z,8.46
2019-02-28T08:07:52.499Z,8.53
2019-02-28T08:08:50.902Z,8.55
2019-02-28T08:09:50.878Z,8.52
2019-02-28T08:10:50.864Z,8.64
2019-02-28T08:11:51.591Z,8.74
2019-02-28T08:12:50.844Z,8.67
2019-02-28T08:13:50.843Z,8.70
2019-02-28T08:14:50.818Z,8.67
2019-02-28T08:15:53.369Z,8.74
2019-02-28T08:16:51.811Z,8.71
2019-02-28T08:17:50.787Z,8.71
2019-02-28T08:18:51.263Z,8.79
2019-02-28T08:19:50.784Z,8.87
2019-02-28T08:20:50.754Z,8.79
2019-02-28T08:21:50.749Z,8.94
2019-02-28T08:22:50.735Z,8.89
2019-02-28T08:23:50.717Z,8.94
2019-02-28T08:24:52.077Z,9.00
2019-02-28T08:25:50.708Z,9.18
2019-02-28T08:26:53.643Z,9.19
2019-02-28T08:27:50.700Z,9.21
2019-02-28T08:28:50.708Z,9.23
2019-02-28T08:29:50.681Z,9.32
2019-02-28T08:30:54.735Z,9.34
2019-02-28T08:31:50.649Z,9.34
2019-02-28T08:32:50.618Z,9.32
2019-02-28T08:33:50.614Z,9.43
2019-02-28T08:34:50.621Z,9.40
2019-02-28T08:35:50.589Z,9.46
2019-02-28T08:36:50.613Z,9.55
2019-02-28T08:37:55.730Z,9.58
2019-02-28T08:38:51.569Z,9.66
2019-02-28T08:39:50.585Z,9.66
2019-02-28T08:40:51.596Z,9.74
2019-02-28T08:41:50.562Z,9.80
2019-02-28T08:42:50.530Z,9.87
2019-02-28T08:43:50.521Z,9.94
2019-02-28T08:44:50.489Z,9.92
2019-02-28T08:45:50.479Z,9.97
2019-02-28T08:46:50.486Z,10.10
2019-02-28T08:47:55.273Z,9.99
2019-02-28T08:48:51.448Z,10.04
2019-02-28T08:49:50.446Z,10.12
2019-02-28T08:50:52.622Z,10.28
2019-02-28T08:51:51.416Z,10.17
2019-02-28T08:52:50.430Z,10.26
2019-02-28T08:53:51.336Z,10.23
2019-02-28T08:54:50.381Z,10.33
2019-02-28T08:55:50.371Z,10.37
2019-02-28T08:56:50.765Z,10.41
2019-02-28T08:57:55.695Z,10.54
2019-02-28T08:58:51.338Z,10.51
2019-02-28T08:59:52.487Z,10.56
2019-02-28T09:00:51.318Z,10.54
2019-02-28T09:01:50.341Z,10.68
2019-02-28T09:02:53.075Z,10.59
2019-02-28T09:03:50.320Z,10.72
2019-02-28T09:04:51.030Z,10.78
2019-02-28T09:05:50.260Z,10.82
2019-02-28T09:06:50.258Z,10.84
2019-02-28T09:07:51.270Z,10.90
2019-02-28T09:08:50.246Z,10.93
2019-02-28T09:09:50.224Z,10.97
2019-02-28T09:10:50.214Z,11.02
2019-02-28T09:11:52.772Z,11.15
2019-02-28T09:12:51.184Z,11.15
2019-02-28T09:13:50.212Z,11.25
2019-02-28T09:14:51.958Z,11.29
2019-02-28T09:15:51.158Z,11.30
2019-02-28T09:16:50.146Z,11.29
2019-02-28T09:17:50.143Z,11.40
2019-02-28T09:18:50.150Z,11.37
2019-02-28T09:19:50.128Z,11.41
2019-02-28T09:20:50.097Z,11.57
2019-02-28T09:21:52.933Z,11.57
2019-02-28T09:22:50.092Z,11.50
2019-02-28T09:23:50.064Z,11.50
2019-02-28T09:24:50.093Z,11.52
2019-02-28T09:25:50.073Z,11.62
2019-02-28T09:26:50.052Z,11.68
2019-02-28T09:27:50.047Z,11.63
2019-02-28T09:28:50.011Z,11.70
2019-02-28T09:29:54.471Z,11.72
2019-02-28T09:30:50.000Z,11.65
2019-02-28T09:31:49.988Z,11.68
2019-02-28T09:32:49.994Z,11.62
2019-02-28T09:33:49.960Z,11.66
2019-02-28T09:34:49.945Z,11.66
2019-02-28T09:35:49.935Z,11.77
2019-02-28T09:36:55.236Z,11.84
2019-02-28T09:37:50.960Z,11.88
2019-02-28T09:38:56.805Z,11.84
2019-02-28T09:39:51.226Z,11.88
2019-02-28T09:40:49.897Z,11.83
2019-02-28T09:41:49.883Z,11.81
2019-02-28T09:42:51.263Z,11.84
2019-02-28T09:43:49.867Z,11.97
2019-02-28T09:44:49.838Z,11.91
2019-02-28T09:45:49.825Z,11.95
2019-02-28T09:46:50.841Z,12.02
2019-02-28T09:47:49.817Z,12.09
2019-02-28T09:48:49.812Z,12.13
2019-02-28T09:49:49.788Z,12.18
2019-02-28T09:50:49.778Z,12.29
2019-02-28T09:51:49.769Z,12.29
2019-02-28T09:52:49.755Z,12.32
2019-02-28T09:53:50.288Z,12.31
2019-02-28T09:54:49.729Z,12.37
2019-02-28T09:55:49.726Z,12.31
2019-02-28T09:56:49.728Z,12.32
2019-02-28T09:57:53.361Z,12.42
2019-02-28T09:58:49.687Z,12.39
2019-02-28T09:59:49.679Z,12.35
2019-02-28T10:00:50.400Z,12.45
2019-02-28T10:01:49.668Z,12.31
2019-02-28T10:02:49.657Z,12.31
2019-02-28T10:03:52.259Z,12.46
2019-02-28T10:04:50.632Z,12.42
2019-02-28T10:05:49.606Z,12.46
2019-02-28T10:06:51.610Z,12.49
2019-02-28T10:07:49.585Z,12.67
2019-02-28T10:08:49.572Z,12.49
2019-02-28T10:09:49.561Z,12.67
2019-02-28T10:10:52.384Z,12.60
2019-02-28T10:11:50.564Z,12.62
2019-02-28T10:12:49.570Z,12.61
2019-02-28T10:13:53.309Z,12.60
2019-02-28T10:14:49.515Z,12.60
2019-02-28T10:15:49.494Z,12.64
2019-02-28T10:16:52.557Z,12.64
2019-02-28T10:17:49.496Z,12.61
2019-02-28T10:18:49.467Z,12.61
2019-02-28T10:19:52.246Z,12.67
2019-02-28T10:20:49.469Z,12.70
2019-02-28T10:21:52.106Z,12.70
2019-02-28T10:22:49.426Z,12.75
2019-02-28T10:23:49.465Z,12.76
2019-02-28T10:24:49.394Z,12.85
2019-02-28T10:25:49.482Z,12.86
2019-02-28T10:26:51.437Z,12.83
2019-02-28T10:27:49.390Z,12.90
2019-02-28T10:28:49.356Z,12.87
2019-02-28T10:29:49.345Z,12.85
2019-02-28T10:30:50.160Z,12.85
2019-02-28T10:31:49.334Z,12.93
2019-02-28T10:32:49.310Z,12.85
2019-02-28T10:33:49.507Z,12.85
2019-02-28T10:34:49.288Z,12.90
2019-02-28T10:35:49.287Z,12.95
2019-02-28T10:36:49.320Z,12.95
2019-02-28T10:37:49.253Z,12.87
2019-02-28T10:38:49.246Z,12.94
2019-02-28T10:39:49.264Z,13.05
2019-02-28T10:40:52.202Z,13.04
2019-02-28T10:41:49.264Z,13.00
2019-02-28T10:42:49.553Z,13.12
2019-02-28T10:43:52.045Z,13.09
2019-02-28T10:44:50.205Z,13.19
2019-02-28T10:45:49.181Z,13.15
2019-02-28T10:46:53.499Z,13.19
2019-02-28T10:47:49.172Z,13.27
2019-02-28T10:48:50.972Z,13.27
2019-02-28T10:49:49.124Z,13.16
2019-02-28T10:50:49.114Z,13.12
2019-02-28T10:51:50.341Z,13.13
2019-02-28T10:52:49.128Z,13.16
2019-02-28T10:53:49.112Z,13.22
2019-02-28T10:54:49.382Z,13.19
2019-02-28T10:55:49.056Z,13.12
2019-02-28T10:56:49.078Z,13.11
2019-02-28T10:57:49.044Z,13.04
2019-02-28T10:58:50.159Z,13.00
2019-02-28T10:59:49.035Z,12.95
2019-02-28T11:00:49.007Z,13.09
2019-02-28T11:01:48.996Z,13.12
2019-02-28T11:02:50.449Z,13.18
2019-02-28T11:03:48.970Z,13.15
2019-02-28T11:04:48.970Z,13.13
2019-02-28T11:05:53.468Z,13.16
2019-02-28T11:06:49.955Z,13.13
2019-02-28T11:07:48.969Z,13.16
2019-02-28T11:08:48.920Z,13.20
2019-02-28T11:09:48.912Z,13.20
2019-02-28T11:10:48.891Z,13.18
2019-02-28T11:11:48.887Z,13.16
2019-02-28T11:12:48.906Z,13.31
2019-02-28T11:13:48.870Z,13.41
2019-02-28T11:14:48.852Z,13.38
2019-02-28T11:15:49.628Z,13.47
2019-02-28T11:16:48.835Z,13.59
2019-02-28T11:17:48.817Z,13.67
2019-02-28T11:18:48.825Z,13.63
2019-02-28T11:19:52.040Z,13.70
2019-02-28T11:20:48.815Z,13.68
2019-02-28T11:21:48.828Z,13.77
2019-02-28T11:22:48.813Z,13.83
2019-02-28T11:23:50.092Z,13.90
2019-02-28T11:24:48.763Z,13.96
2019-02-28T11:25:48.789Z,13.99
2019-02-28T11:26:48.739Z,14.07
2019-02-28T11:27:48.737Z,13.97
2019-02-28T11:28:48.739Z,13.99
2019-02-28T11:29:48.716Z,14.08
2019-02-28T11:30:48.688Z,14.15
2019-02-28T11:31:50.612Z,14.17
2019-02-28T11:32:49.662Z,14.20
2019-02-28T11:33:48.657Z,14.25
2019-02-28T11:34:49.305Z,14.26
2019-02-28T11:35:48.626Z,14.35
2019-02-28T11:36:48.615Z,14.41
2019-02-28T11:37:48.619Z,14.30
2019-02-28T11:38:48.594Z,14.35
2019-02-28T11:39:48.601Z,14.22
2019-02-28T11:40:57.055Z,14.25
2019-02-28T11:41:52.513Z,14.29
2019-02-28T11:42:48.566Z,14.25
2019-02-28T11:43:48.534Z,14.30
2019-02-28T11:44:48.568Z,14.26
2019-02-28T11:45:48.522Z,14.33
2019-02-28T11:46:48.503Z,14.28
2019-02-28T11:47:48.494Z,14.32
2019-02-28T11:48:51.085Z,14.32
2019-02-28T11:49:49.530Z,14.36
2019-02-28T11:50:48.485Z,14.36
2019-02-28T11:51:49.370Z,14.36
2019-02-28T11:52:48.457Z,14.25
2019-02-28T11:53:48.427Z,14.28
2019-02-28T11:54:48.425Z,14.17
2019-02-28T11:55:48.425Z,14.12
2019-02-28T11:56:48.394Z,14.12
2019-02-28T11:57:48.384Z,14.20
2019-02-28T11:58:51.764Z,14.15
2019-02-28T11:59:48.371Z,14.29
2019-02-28T12:00:48.350Z,14.25
2019-02-28T12:01:48.513Z,14.32
2019-02-28T12:02:53.262Z,14.20
2019-02-28T12:03:49.358Z,14.36
2019-02-28T12:04:48.310Z,14.32
2019-02-28T12:05:50.635Z,14.36
2019-02-28T12:06:50.280Z,14.35
2019-02-28T12:07:48.313Z,14.44
2019-02-28T12:08:48.324Z,14.43
2019-02-28T12:09:48.257Z,14.44
2019-02-28T12:10:48.251Z,14.37
2019-02-28T12:11:48.240Z,14.41
2019-02-28T12:12:48.223Z,14.35
2019-02-28T12:13:48.251Z,14.47
2019-02-28T12:14:48.210Z,14.41
2019-02-28T12:15:48.186Z,14.45
2019-02-28T12:16:52.699Z,14.47
2019-02-28T12:17:49.180Z,14.37
2019-02-28T12:18:48.156Z,14.33
2019-02-28T12:19:50.670Z,14.33
2019-02-28T12:20:48.137Z,14.30
2019-02-28T12:21:48.132Z,14.35
2019-02-28T12:22:49.323Z,14.43
2019-02-28T12:23:48.126Z,14.44
2019-02-28T12:24:48.109Z,14.37
2019-02-28T12:25:48.091Z,14.35
2019-02-28T12:26:49.328Z,14.20
2019-02-28T12:27:48.060Z,14.25
2019-02-28T12:28:48.053Z,14.33
2019-02-28T12:29:49.202Z,14.29
2019-02-28T12:30:48.027Z,14.30
2019-02-28T12:31:48.013Z,14.23
2019-02-28T12:32:48.002Z,14.32
2019-02-28T12:33:47.995Z,14.35
2019-02-28T12:34:47.986Z,14.37
2019-02-28T12:35:47.990Z,14.32
2019-02-28T12:36:49.421Z,14.30
2019-02-28T12:37:47.954Z,14.26
2019-02-28T12:38:47.942Z,14.33
2019-02-28T12:39:47.926Z,14.30
2019-02-28T12:40:49.454Z,14.43
2019-02-28T12:41:47.914Z,14.45
2019-02-28T12:42:47.920Z,14.50
2019-02-28T12:43:47.933Z,14.33
2019-02-28T12:44:49.053Z,14.36
2019-02-28T12:45:47.939Z,14.25
2019-02-28T12:46:47.850Z,14.35
2019-02-28T12:47:47.867Z,14.35
2019-02-28T12:48:48.335Z,14.26
2019-02-28T12:49:47.821Z,14.26
2019-02-28T12:50:47.832Z,14.15
2019-02-28T12:51:47.797Z,14.23
2019-02-28T12:52:49.985Z,14.20
2019-02-28T12:53:47.790Z,14.15
2019-02-28T12:54:47.764Z,14.14
2019-02-28T12:55:47.793Z,14.20
2019-02-28T12:56:48.582Z,14.17
2019-02-28T12:57:47.763Z,14.23
2019-02-28T12:58:47.764Z,14.25
2019-02-28T12:59:47.726Z,14.17
2019-02-28T13:00:47.733Z,14.20
2019-02-28T13:01:47.734Z,14.15
2019-02-28T13:02:47.692Z,14.12
2019-02-28T13:03:47.678Z,14.10
2019-02-28T13:04:47.676Z,14.05
2019-02-28T13:05:49.240Z,14.04
2019-02-28T13:06:47.676Z,14.04
2019-02-28T13:07:48.599Z,14.08
2019-02-28T13:08:47.615Z,14.07
2019-02-28T13:09:48.177Z,14.11